Terminal Aerodrome Forecast
Issued by NWS Sioux Falls, SD

Home | Current Version | Previous Version | Text Only | Print | Product List | Glossary Off
Versions: 1 2 3 4 5 6 7 8 9 10 11 12 13 14 15

000
FTUS43 KFSD 291740
TAFFSD
TAF
KFSD 291740Z 2918/3018 07005KT P6SM SCT040
     FM292230 11006KT P6SM SKC
     FM301000 09004KT 6SM BR FEW003
     FM301100 08004KT 3SM BR SCT003
     FM301430 11005KT 6SM BR SCT003
     FM301700 13007KT P6SM SCT025=

USA.gov is the U.S. government's official web portal to all federal, state and local government web resources and services.